Time;durP1;ratioP1;P1;durP2;ratioP2;P2;SDS_P1;SDS_P2;PMS_P1;PMS_P2;Temp;Humidity;BMP_temperature;BMP_pressure;BME280_temperature;BME280_humidity;BME280_pressure;Samples;Min_cycle;Max_cycle;Signal;HPM_P1;HPM_P2
2022/12/15 00:38:51;;;;;;;31.85;15.35;;;;;;;;;;4956624;29;20248;-64
2022/12/15 00:41:18;;;;;;;25.08;16.98;;;;;;;;;;4956293;28;20213;-63
2022/12/15 00:43:46;;;;;;;24.52;15.30;;;;;;;;;;4956668;29;20203;-64
2022/12/15 00:48:58;;;;;;;24.80;14.45;;;;;;;;;;4956488;29;20189;-64
2022/12/15 01:21:43;;;;;;;24.17;14.45;;;;;;;;;;4955680;29;20182;-64
2022/12/15 01:24:12;;;;;;;20.17;14.23;;;;;;;;;;4955831;28;20252;-64
2022/12/15 01:26:39;;;;;;;28.75;15.55;;;;;;;;;;4955438;29;20203;-64
2022/12/15 01:29:06;;;;;;;23.90;15.65;;;;;;;;;;4955833;29;20576;-64
2022/12/15 01:31:34;;;;;;;20.83;14.82;;;;;;;;;;4955401;29;20198;-64
2022/12/15 01:34:01;;;;;;;26.63;15.48;;;;;;;;;;4955631;29;20226;-64
2022/12/15 01:36:28;;;;;;;22.88;15.15;;;;;;;;;;4955437;28;20297;-64
2022/12/15 01:38:55;;;;;;;26.55;14.43;;;;;;;;;;4955702;28;20292;-64
2022/12/15 01:41:23;;;;;;;23.88;15.50;;;;;;;;;;4955340;28;20205;-64
2022/12/15 01:43:50;;;;;;;23.20;14.45;;;;;;;;;;4955125;28;20248;-64
2022/12/15 01:46:19;;;;;;;20.98;14.80;;;;;;;;;;4955084;29;20651;-63
2022/12/15 01:48:48;;;;;;;25.35;15.93;;;;;;;;;;4955364;29;20233;-63
2022/12/15 01:51:26;;;;;;;23.63;14.55;;;;;;;;;;4955035;28;20290;-64
2022/12/15 01:53:56;;;;;;;23.67;14.68;;;;;;;;;;4954994;29;20343;-64
2022/12/15 01:56:26;;;;;;;25.52;14.57;;;;;;;;;;4955137;29;20285;-64
2022/12/15 01:58:55;;;;;;;22.48;14.70;;;;;;;;;;4954918;28;20233;-64
2022/12/15 02:01:22;;;;;;;15.68;13.30;;;;;;;;;;4955399;29;20198;-65
2022/12/15 02:03:50;;;;;;;22.42;14.55;;;;;;;;;;4955358;29;20240;-63
2022/12/15 02:06:20;;;;;;;19.33;14.27;;;;;;;;;;4955292;29;20310;-64
2022/12/15 02:08:48;;;;;;;27.00;14.15;;;;;;;;;;4955406;29;20190;-64
2022/12/15 02:11:37;;;;;;;27.73;14.60;;;;;;;;;;4954773;28;20324;-63
2022/12/15 02:14:05;;;;;;;20.10;13.00;;;;;;;;;;4955400;29;20183;-63
2022/12/15 02:16:39;;;;;;;17.95;13.48;;;;;;;;;;4954989;28;20285;-63
2022/12/15 02:19:16;;;;;;;23.35;15.93;;;;;;;;;;4955238;29;20194;-64
2022/12/15 02:21:47;;;;;;;23.80;15.02;;;;;;;;;;4954685;29;20284;-64
2022/12/15 02:24:25;;;;;;;25.85;16.42;;;;;;;;;;4955197;29;20197;-64
2022/12/15 02:27:12;;;;;;;24.13;15.13;;;;;;;;;;4954545;29;20190;-64
2022/12/15 02:30:07;;;;;;;25.38;15.30;;;;;;;;;;4955036;29;20212;-64
2022/12/15 02:32:40;;;;;;;27.95;14.60;;;;;;;;;;4931302;28;20206;-63
2022/12/15 02:35:11;;;;;;;23.70;15.13;;;;;;;;;;4954561;29;20702;-64
2022/12/15 02:37:39;;;;;;;22.83;14.13;;;;;;;;;;4955127;29;20226;-64
2022/12/15 02:40:08;;;;;;;24.70;15.85;;;;;;;;;;4954913;28;20210;-64
2022/12/15 02:42:38;;;;;;;23.05;14.70;;;;;;;;;;4954592;29;20664;-64
2022/12/15 02:45:06;;;;;;;22.67;13.80;;;;;;;;;;4954612;28;20233;-64
2022/12/15 02:47:34;;;;;;;29.70;18.08;;;;;;;;;;4954499;29;20208;-64
2022/12/15 02:50:12;;;;;;;26.83;15.77;;;;;;;;;;4954623;29;20289;-64
2022/12/15 02:52:43;;;;;;;24.25;14.88;;;;;;;;;;4954206;29;20194;-64
2022/12/15 02:55:13;;;;;;;27.75;15.82;;;;;;;;;;4954888;29;20214;-64
2022/12/15 02:57:45;;;;;;;23.45;15.32;;;;;;;;;;4954387;28;20226;-64
2022/12/15 03:00:13;;;;;;;26.80;16.60;;;;;;;;;;4954183;29;20269;-64
2022/12/15 03:02:42;;;;;;;28.10;15.77;;;;;;;;;;4953979;29;20237;-64
2022/12/15 03:05:13;;;;;;;26.35;15.30;;;;;;;;;;4954658;28;20202;-64
2022/12/15 03:07:41;;;;;;;24.17;16.25;;;;;;;;;;4954262;29;20196;-64
2022/12/15 03:10:10;;;;;;;24.20;15.50;;;;;;;;;;4954171;28;20577;-64
2022/12/15 03:12:37;;;;;;;27.15;15.75;;;;;;;;;;4954582;29;20217;-64
2022/12/15 03:15:05;;;;;;;27.33;15.20;;;;;;;;;;4954494;28;20261;-64
2022/12/15 03:17:32;;;;;;;25.02;15.32;;;;;;;;;;4954032;28;20209;-64
2022/12/15 03:19:59;;;;;;;26.95;14.93;;;;;;;;;;4954372;29;20568;-64
2022/12/15 03:22:28;;;;;;;20.10;14.65;;;;;;;;;;4954311;29;20202;-64
2022/12/15 03:24:55;;;;;;;20.98;14.55;;;;;;;;;;4954241;28;20296;-64
2022/12/15 03:27:22;;;;;;;25.75;16.08;;;;;;;;;;4953948;28;20209;-64
2022/12/15 03:29:49;;;;;;;24.15;16.35;;;;;;;;;;4953918;28;20204;-64
2022/12/15 03:32:17;;;;;;;24.00;15.88;;;;;;;;;;4955362;28;20285;-64
2022/12/15 03:34:44;;;;;;;25.38;14.85;;;;;;;;;;4957462;29;20225;-64
2022/12/15 03:37:11;;;;;;;26.15;17.10;;;;;;;;;;4957572;29;20209;-64
2022/12/15 03:39:40;;;;;;;23.38;16.45;;;;;;;;;;4957698;28;20297;-64
2022/12/15 03:42:07;;;;;;;23.27;14.43;;;;;;;;;;4957358;28;20202;-64
2022/12/15 03:44:34;;;;;;;26.88;17.65;;;;;;;;;;4957582;29;20241;-64
2022/12/15 03:47:01;;;;;;;23.55;15.27;;;;;;;;;;4957320;28;20198;-64
2022/12/15 03:49:29;;;;;;;26.85;16.48;;;;;;;;;;4957190;28;20310;-64
2022/12/15 03:51:56;;;;;;;29.83;16.88;;;;;;;;;;4957830;28;20197;-64
2022/12/15 03:54:23;;;;;;;25.80;16.48;;;;;;;;;;4957451;28;20257;-64
2022/12/15 03:56:52;;;;;;;26.63;17.40;;;;;;;;;;4957529;28;20237;-64
2022/12/15 03:59:19;;;;;;;26.58;17.17;;;;;;;;;;4957039;28;20667;-64
2022/12/15 04:01:48;;;;;;;28.10;17.08;;;;;;;;;;4957222;28;20205;-64
2022/12/15 04:04:15;;;;;;;30.13;16.50;;;;;;;;;;4957216;28;20651;-64
2022/12/15 04:06:42;;;;;;;25.83;14.55;;;;;;;;;;4957285;29;20228;-64
2022/12/15 04:09:09;;;;;;;21.38;15.90;;;;;;;;;;4957103;28;20238;-64
2022/12/15 04:11:36;;;;;;;27.48;17.73;;;;;;;;;;4956604;29;20313;-64
2022/12/15 04:14:05;;;;;;;25.50;17.65;;;;;;;;;;4956673;28;20284;-64
2022/12/15 04:16:32;;;;;;;29.50;17.20;;;;;;;;;;4956702;29;20222;-64
2022/12/15 04:21:44;;;;;;;30.30;17.60;;;;;;;;;;4957096;29;20194;-64
2022/12/15 05:32:59;;;;;;;26.33;18.35;;;;;;;;;;4955583;29;20274;-65
2022/12/15 05:35:27;;;;;;;25.50;18.55;;;;;;;;;;4955398;29;20218;-65
2022/12/15 05:37:55;;;;;;;30.42;17.83;;;;;;;;;;4955561;29;20224;-64
2022/12/15 05:40:22;;;;;;;30.08;18.70;;;;;;;;;;4955390;29;20202;-64
2022/12/15 05:42:49;;;;;;;34.35;19.13;;;;;;;;;;4955105;28;20691;-65
2022/12/15 05:45:16;;;;;;;31.63;19.90;;;;;;;;;;4955404;29;20261;-64
2022/12/15 05:47:43;;;;;;;29.30;20.60;;;;;;;;;;4955289;29;20280;-65
2022/12/15 05:50:11;;;;;;;24.77;16.27;;;;;;;;;;4954855;28;20289;-64
2022/12/15 05:52:39;;;;;;;29.88;18.80;;;;;;;;;;4955393;29;20309;-65
2022/12/15 05:55:07;;;;;;;28.75;18.98;;;;;;;;;;4954374;28;20685;-65
2022/12/15 05:57:34;;;;;;;34.67;18.70;;;;;;;;;;4955284;29;20198;-65
2022/12/15 06:00:01;;;;;;;39.08;19.40;;;;;;;;;;4954785;28;20289;-65
2022/12/15 06:02:29;;;;;;;28.08;17.88;;;;;;;;;;4955051;28;20205;-65
2022/12/15 06:04:56;;;;;;;31.63;18.48;;;;;;;;;;4954978;28;20270;-65
2022/12/15 06:07:23;;;;;;;28.15;18.40;;;;;;;;;;4954591;28;20212;-64
2022/12/15 06:09:51;;;;;;;29.20;19.50;;;;;;;;;;4954028;28;20568;-71
2022/12/15 06:12:19;;;;;;;41.80;19.48;;;;;;;;;;4954777;29;20198;-66
2022/12/15 06:14:46;;;;;;;30.55;21.38;;;;;;;;;;4954878;28;20670;-65
2022/12/15 06:17:13;;;;;;;29.38;19.73;;;;;;;;;;4955031;28;20324;-65
2022/12/15 06:19:40;;;;;;;37.13;20.52;;;;;;;;;;4955029;28;20316;-66
2022/12/15 06:22:07;;;;;;;33.35;19.33;;;;;;;;;;4954804;28;20289;-66
2022/12/15 06:24:35;;;;;;;37.70;19.48;;;;;;;;;;4954744;29;20625;-65
2022/12/15 06:27:03;;;;;;;28.10;19.70;;;;;;;;;;4955631;28;20208;-66
2022/12/15 06:29:31;;;;;;;31.55;20.13;;;;;;;;;;4954621;29;20245;-66
2022/12/15 06:31:58;;;;;;;30.55;19.67;;;;;;;;;;4954812;29;20200;-65
2022/12/15 06:34:25;;;;;;;35.78;21.35;;;;;;;;;;4954372;28;20688;-65
2022/12/15 06:36:53;;;;;;;38.22;20.40;;;;;;;;;;4954418;29;20253;-65
2022/12/15 06:39:20;;;;;;;26.52;17.10;;;;;;;;;;4954487;28;20265;-66
2022/12/15 06:41:48;;;;;;;31.02;20.50;;;;;;;;;;4955127;28;20213;-65
2022/12/15 06:44:16;;;;;;;36.38;19.25;;;;;;;;;;4954880;29;20558;-66
2022/12/15 06:46:44;;;;;;;31.40;20.60;;;;;;;;;;4954844;29;20205;-66
2022/12/15 06:49:12;;;;;;;36.42;21.85;;;;;;;;;;4954701;29;20194;-66
2022/12/15 06:51:40;;;;;;;30.80;18.90;;;;;;;;;;4954691;29;20201;-67
2022/12/15 06:54:07;;;;;;;30.35;19.75;;;;;;;;;;4954857;28;20198;-66
2022/12/15 06:56:35;;;;;;;30.90;20.65;;;;;;;;;;4954253;28;20222;-66
2022/12/15 06:59:03;;;;;;;27.83;18.50;;;;;;;;;;4954358;29;20663;-66
2022/12/15 07:01:32;;;;;;;32.08;19.88;;;;;;;;;;4954355;29;20198;-66
2022/12/15 07:04:01;;;;;;;34.83;21.98;;;;;;;;;;4954680;28;20312;-66
2022/12/15 07:06:29;;;;;;;45.10;19.67;;;;;;;;;;4956041;28;20214;-65
2022/12/15 07:08:56;;;;;;;36.65;21.27;;;;;;;;;;4958455;28;20209;-66
2022/12/15 07:11:23;;;;;;;32.50;20.67;;;;;;;;;;4958260;28;20651;-66
2022/12/15 07:13:51;;;;;;;40.20;22.33;;;;;;;;;;4958761;28;20221;-66
2022/12/15 07:16:18;;;;;;;28.38;20.58;;;;;;;;;;4958324;28;20589;-66
2022/12/15 07:18:47;;;;;;;33.70;21.05;;;;;;;;;;4958373;28;20204;-66
2022/12/15 07:21:14;;;;;;;29.38;21.98;;;;;;;;;;4958362;29;20293;-66
2022/12/15 07:23:41;;;;;;;39.20;23.13;;;;;;;;;;4958177;29;20198;-66
2022/12/15 07:26:09;;;;;;;35.67;22.38;;;;;;;;;;4957893;28;20234;-66
2022/12/15 07:28:37;;;;;;;34.22;22.42;;;;;;;;;;4958238;28;20289;-66
2022/12/15 07:31:05;;;;;;;34.65;22.33;;;;;;;;;;4958328;29;20248;-66
2022/12/15 07:33:33;;;;;;;42.22;24.02;;;;;;;;;;4958184;28;20200;-66
2022/12/15 07:36:02;;;;;;;36.58;20.10;;;;;;;;;;4957702;29;20237;-66
2022/12/15 07:38:29;;;;;;;42.70;23.70;;;;;;;;;;4957757;28;20202;-66
2022/12/15 07:41:00;;;;;;;34.55;23.45;;;;;;;;;;4958108;29;20198;-66
2022/12/15 07:43:29;;;;;;;32.53;21.17;;;;;;;;;;4958193;29;20201;-66
2022/12/15 07:45:56;;;;;;;33.72;22.73;;;;;;;;;;4957545;29;20206;-66
2022/12/15 07:48:23;;;;;;;32.58;21.95;;;;;;;;;;4957902;28;20198;-66
2022/12/15 07:50:56;;;;;;;33.97;23.33;;;;;;;;;;4957326;28;20217;-66
2022/12/15 07:53:24;;;;;;;34.63;22.90;;;;;;;;;;4957765;29;20199;-66
2022/12/15 07:55:55;;;;;;;32.60;22.38;;;;;;;;;;4957374;29;20222;-66
2022/12/15 07:58:23;;;;;;;35.33;22.65;;;;;;;;;;4957365;29;20285;-66
2022/12/15 08:00:50;;;;;;;37.30;23.58;;;;;;;;;;4957739;28;20285;-66
2022/12/15 08:03:17;;;;;;;32.80;22.80;;;;;;;;;;4957790;28;20208;-66
2022/12/15 08:05:44;;;;;;;31.27;22.75;;;;;;;;;;4957812;28;20206;-66
2022/12/15 08:08:12;;;;;;;38.80;23.50;;;;;;;;;;4957509;28;20309;-66
2022/12/15 08:10:41;;;;;;;35.90;22.77;;;;;;;;;;4957337;28;20320;-66
2022/12/15 08:13:08;;;;;;;40.17;24.58;;;;;;;;;;4957531;28;20198;-66
2022/12/15 08:15:36;;;;;;;41.42;25.00;;;;;;;;;;4957267;29;20257;-65
2022/12/15 08:18:04;;;;;;;43.58;25.92;;;;;;;;;;4956432;28;20194;-66
2022/12/15 08:20:31;;;;;;;37.80;23.17;;;;;;;;;;4957184;28;20296;-66
2022/12/15 08:22:58;;;;;;;41.10;24.33;;;;;;;;;;4956913;28;20674;-65
2022/12/15 08:25:27;;;;;;;39.85;24.30;;;;;;;;;;4956824;28;20288;-66
2022/12/15 08:27:55;;;;;;;35.45;22.88;;;;;;;;;;4957022;29;20198;-65
2022/12/15 08:30:23;;;;;;;35.47;25.77;;;;;;;;;;4957017;28;20202;-66
2022/12/15 08:32:50;;;;;;;44.53;23.50;;;;;;;;;;4957001;29;20361;-65
2022/12/15 08:35:17;;;;;;;47.15;25.15;;;;;;;;;;4956655;29;20684;-66
2022/12/15 08:37:45;;;;;;;38.45;25.20;;;;;;;;;;4956546;29;20263;-66
2022/12/15 08:40:12;;;;;;;41.80;26.65;;;;;;;;;;4956813;28;20213;-66
2022/12/15 08:42:40;;;;;;;44.42;24.67;;;;;;;;;;4956451;29;20311;-67
2022/12/15 08:45:09;;;;;;;38.22;24.10;;;;;;;;;;4956491;28;20289;-66
2022/12/15 08:47:37;;;;;;;41.38;22.48;;;;;;;;;;4956808;29;20256;-65
2022/12/15 08:50:04;;;;;;;42.58;26.20;;;;;;;;;;4956994;29;20198;-65
2022/12/15 08:52:31;;;;;;;38.40;26.65;;;;;;;;;;4956389;28;20253;-65
2022/12/15 08:54:58;;;;;;;44.10;26.67;;;;;;;;;;4956604;29;20511;-65
2022/12/15 08:57:26;;;;;;;47.72;26.85;;;;;;;;;;4956759;28;20349;-66
2022/12/15 08:59:53;;;;;;;47.17;27.23;;;;;;;;;;4956466;29;20289;-66
2022/12/15 09:02:22;;;;;;;47.35;29.13;;;;;;;;;;4956751;29;20329;-66
2022/12/15 09:04:50;;;;;;;43.65;23.98;;;;;;;;;;4956404;28;20204;-65
2022/12/15 09:07:17;;;;;;;44.88;27.58;;;;;;;;;;4956393;28;20206;-65
2022/12/15 09:09:44;;;;;;;48.53;29.58;;;;;;;;;;4955902;29;20293;-66
2022/12/15 09:12:13;;;;;;;43.38;27.15;;;;;;;;;;4956090;29;20202;-65
2022/12/15 09:14:40;;;;;;;48.47;28.33;;;;;;;;;;4956005;29;20648;-65
2022/12/15 09:17:07;;;;;;;49.42;28.10;;;;;;;;;;4956037;29;20316;-65
2022/12/15 09:19:36;;;;;;;38.60;26.35;;;;;;;;;;4955536;29;20289;-65
2022/12/15 09:22:04;;;;;;;46.40;27.92;;;;;;;;;;4955909;28;20194;-66
2022/12/15 09:24:31;;;;;;;50.05;29.83;;;;;;;;;;4956484;29;20211;-66
2022/12/15 09:26:58;;;;;;;43.90;27.27;;;;;;;;;;4955717;29;20292;-65
2022/12/15 09:29:25;;;;;;;49.60;28.58;;;;;;;;;;4955318;28;20535;-65
2022/12/15 09:31:53;;;;;;;49.72;29.17;;;;;;;;;;4956013;29;20194;-65
2022/12/15 09:34:20;;;;;;;41.83;27.17;;;;;;;;;;4956175;28;20202;-66
2022/12/15 09:36:48;;;;;;;43.92;26.35;;;;;;;;;;4955493;29;20267;-65
2022/12/15 09:39:16;;;;;;;48.33;29.30;;;;;;;;;;4955592;29;20352;-66
2022/12/15 09:41:49;;;;;;;43.20;27.00;;;;;;;;;;4955627;28;20666;-66
2022/12/15 09:44:17;;;;;;;41.47;26.15;;;;;;;;;;4955479;29;20187;-66
2022/12/15 09:46:48;;;;;;;49.85;28.92;;;;;;;;;;4955532;29;20202;-66
2022/12/15 09:49:19;;;;;;;41.35;26.23;;;;;;;;;;4956068;28;20187;-66
2022/12/15 09:51:48;;;;;;;37.70;26.95;;;;;;;;;;4955319;29;20193;-65
2022/12/15 09:54:17;;;;;;;40.45;27.88;;;;;;;;;;4955767;29;20230;-65
2022/12/15 09:56:48;;;;;;;46.50;26.95;;;;;;;;;;4955108;29;20230;-65
2022/12/15 09:59:21;;;;;;;41.63;26.27;;;;;;;;;;4955655;29;20204;-65
2022/12/15 10:01:51;;;;;;;47.20;30.08;;;;;;;;;;4955554;29;20579;-65
2022/12/15 10:04:20;;;;;;;44.70;27.67;;;;;;;;;;4955523;29;20308;-66
2022/12/15 10:06:50;;;;;;;43.85;27.83;;;;;;;;;;4955648;28;20210;-66
2022/12/15 10:09:20;;;;;;;57.35;30.50;;;;;;;;;;4955108;28;20290;-65
2022/12/15 10:11:50;;;;;;;46.65;28.05;;;;;;;;;;4955533;29;20676;-65
2022/12/15 10:14:22;;;;;;;41.20;29.23;;;;;;;;;;4955387;29;20632;-65
2022/12/15 10:16:56;;;;;;;53.25;31.98;;;;;;;;;;4955455;29;20214;-65
2022/12/15 10:19:27;;;;;;;47.38;27.40;;;;;;;;;;4955145;28;20204;-66
2022/12/15 10:21:54;;;;;;;36.63;27.40;;;;;;;;;;4955563;29;20237;-65
2022/12/15 10:24:23;;;;;;;45.13;27.90;;;;;;;;;;4955046;29;20575;-65
2022/12/15 10:26:55;;;;;;;35.28;24.35;;;;;;;;;;4955059;28;20202;-65
2022/12/15 10:29:30;;;;;;;50.20;28.00;;;;;;;;;;4954853;29;20253;-65
2022/12/15 10:32:01;;;;;;;42.92;28.63;;;;;;;;;;4955336;29;20191;-65
2022/12/15 10:34:29;;;;;;;47.42;27.77;;;;;;;;;;4954989;29;20219;-65
2022/12/15 10:36:59;;;;;;;41.72;27.52;;;;;;;;;;4955150;28;20310;-65
2022/12/15 10:39:38;;;;;;;49.42;27.80;;;;;;;;;;4954632;29;20188;-65
2022/12/15 10:42:13;;;;;;;41.65;26.70;;;;;;;;;;4954552;29;20194;-65
2022/12/15 10:44:41;;;;;;;48.63;28.52;;;;;;;;;;4954777;28;20552;-65
2022/12/15 10:47:12;;;;;;;45.78;28.88;;;;;;;;;;4954430;29;20209;-65
2022/12/15 10:49:39;;;;;;;42.25;26.25;;;;;;;;;;4954942;29;20202;-66
2022/12/15 10:52:13;;;;;;;46.35;30.02;;;;;;;;;;4954730;29;20201;-65
2022/12/15 10:54:45;;;;;;;45.83;28.00;;;;;;;;;;4954485;29;20187;-65
2022/12/15 10:57:21;;;;;;;46.42;29.58;;;;;;;;;;4954829;29;20210;-66
2022/12/15 10:59:49;;;;;;;46.60;29.92;;;;;;;;;;4954778;29;20190;-66
2022/12/15 11:02:25;;;;;;;52.05;31.55;;;;;;;;;;4954282;28;20209;-66
2022/12/15 11:04:56;;;;;;;49.92;31.50;;;;;;;;;;4954222;29;20270;-66
2022/12/15 11:07:23;;;;;;;47.33;29.25;;;;;;;;;;4955225;29;20534;-66
2022/12/15 11:09:58;;;;;;;55.20;31.52;;;;;;;;;;4954419;29;20674;-65
2022/12/15 11:15:37;;;;;;;42.50;29.65;;;;;;;;;;4954651;29;20276;-65
2022/12/15 11:18:11;;;;;;;46.28;29.75;;;;;;;;;;4954491;29;20226;-64
2022/12/15 11:20:40;;;;;;;41.58;28.83;;;;;;;;;;4954443;29;20187;-65
2022/12/15 11:23:10;;;;;;;42.83;29.20;;;;;;;;;;4954328;28;20309;-66
2022/12/15 11:25:40;;;;;;;50.45;31.23;;;;;;;;;;4954185;29;20205;-67
2022/12/15 11:28:16;;;;;;;42.28;30.25;;;;;;;;;;4954420;29;20218;-65
2022/12/15 11:30:46;;;;;;;44.53;29.90;;;;;;;;;;4954368;29;20187;-65
2022/12/15 11:33:14;;;;;;;48.72;29.00;;;;;;;;;;4954171;29;20274;-65
2022/12/15 11:35:51;;;;;;;41.90;28.85;;;;;;;;;;4953912;28;20289;-64
2022/12/15 11:38:21;;;;;;;45.70;28.25;;;;;;;;;;4954237;29;20216;-65
2022/12/15 11:40:51;;;;;;;44.55;29.08;;;;;;;;;;4954254;29;20290;-65
2022/12/15 11:43:33;;;;;;;46.72;29.55;;;;;;;;;;4954247;28;20563;-65
2022/12/15 11:46:05;;;;;;;44.75;30.15;;;;;;;;;;4953810;29;20189;-64
2022/12/15 11:48:36;;;;;;;43.95;28.73;;;;;;;;;;4954524;29;20194;-65
2022/12/15 11:51:06;;;;;;;41.78;28.92;;;;;;;;;;4954122;29;20277;-66
2022/12/15 11:53:49;;;;;;;42.28;28.30;;;;;;;;;;4955819;28;20199;-66
2022/12/15 11:56:22;;;;;;;37.47;28.52;;;;;;;;;;4957583;29;20278;-66
2022/12/15 11:59:04;;;;;;;45.40;31.13;;;;;;;;;;4957470;29;20359;-66
2022/12/15 12:01:43;;;;;;;49.45;27.25;;;;;;;;;;4954978;29;20214;-66
2022/12/15 12:04:14;;;;;;;39.63;25.70;;;;;;;;;;4957816;29;20186;-66
2022/12/15 12:06:47;;;;;;;38.53;26.88;;;;;;;;;;4957215;29;20222;-65
2022/12/15 12:09:23;;;;;;;39.50;27.65;;;;;;;;;;4957113;29;20187;-65
2022/12/15 12:11:54;;;;;;;38.25;27.08;;;;;;;;;;4957257;29;20313;-66
2022/12/15 12:14:27;;;;;;;36.47;25.02;;;;;;;;;;4956859;29;20278;-66
2022/12/15 12:16:57;;;;;;;41.25;26.13;;;;;;;;;;4957765;29;20214;-66
2022/12/15 12:19:27;;;;;;;43.67;28.52;;;;;;;;;;4956962;29;20202;-66
2022/12/15 12:21:58;;;;;;;48.45;28.10;;;;;;;;;;4957931;29;20218;-66
2022/12/15 12:24:27;;;;;;;43.25;26.85;;;;;;;;;;4956622;29;20230;-66
2022/12/15 12:26:59;;;;;;;38.53;28.30;;;;;;;;;;4956594;28;20209;-66
2022/12/15 12:29:30;;;;;;;39.17;28.00;;;;;;;;;;4956872;29;20218;-65
2022/12/15 12:32:03;;;;;;;40.97;27.60;;;;;;;;;;4956568;29;20183;-66
2022/12/15 12:34:33;;;;;;;47.42;31.00;;;;;;;;;;4956818;29;20728;-66
2022/12/15 12:37:05;;;;;;;43.55;28.33;;;;;;;;;;4957566;29;20297;-66
2022/12/15 12:39:32;;;;;;;45.60;27.45;;;;;;;;;;4956845;29;20372;-66
2022/12/15 12:42:06;;;;;;;39.10;26.80;;;;;;;;;;4956457;29;20220;-66
2022/12/15 12:44:35;;;;;;;40.47;27.30;;;;;;;;;;4956310;29;20671;-66
2022/12/15 12:47:08;;;;;;;43.20;26.38;;;;;;;;;;4957098;29;20237;-66
2022/12/15 12:49:39;;;;;;;48.90;28.65;;;;;;;;;;4956481;29;20654;-65
2022/12/15 12:52:07;;;;;;;54.35;30.20;;;;;;;;;;4956213;28;20182;-66
2022/12/15 12:54:41;;;;;;;48.45;28.38;;;;;;;;;;4956610;29;20289;-65
2022/12/15 12:57:23;;;;;;;46.17;27.50;;;;;;;;;;4956328;29;20221;-65
2022/12/15 12:59:53;;;;;;;45.25;28.30;;;;;;;;;;4956467;29;20244;-65
2022/12/15 13:02:38;;;;;;;42.60;27.23;;;;;;;;;;4956426;28;20241;-66
2022/12/15 13:05:22;;;;;;;45.55;28.85;;;;;;;;;;4944333;28;20205;-65
2022/12/15 13:07:54;;;;;;;39.90;28.08;;;;;;;;;;4956674;29;20282;-65
2022/12/15 13:10:22;;;;;;;46.33;29.02;;;;;;;;;;4956398;28;20316;-65
2022/12/15 13:12:50;;;;;;;40.97;29.17;;;;;;;;;;4956535;28;20648;-66
2022/12/15 13:15:29;;;;;;;40.90;26.98;;;;;;;;;;4956094;29;20201;-66
2022/12/15 13:17:59;;;;;;;52.60;28.52;;;;;;;;;;4956292;29;20220;-66
2022/12/15 13:20:27;;;;;;;40.13;27.90;;;;;;;;;;4956252;28;20297;-65
2022/12/15 13:22:55;;;;;;;41.60;27.35;;;;;;;;;;4956333;28;20294;-66
2022/12/15 13:25:36;;;;;;;45.58;29.60;;;;;;;;;;4956038;28;20233;-66
2022/12/15 13:28:16;;;;;;;44.10;28.45;;;;;;;;;;4956451;29;20276;-65
2022/12/15 13:30:58;;;;;;;42.42;28.42;;;;;;;;;;4955659;29;20277;-66
2022/12/15 13:33:27;;;;;;;40.72;28.80;;;;;;;;;;4956344;29;20294;-66
2022/12/15 13:35:55;;;;;;;37.40;27.65;;;;;;;;;;4955837;29;20194;-66
2022/12/15 13:38:42;;;;;;;44.53;30.52;;;;;;;;;;4955642;28;20227;-66
2022/12/15 13:41:22;;;;;;;42.88;28.25;;;;;;;;;;4955558;29;20227;-65
2022/12/15 13:43:50;;;;;;;43.50;27.65;;;;;;;;;;4955824;29;20198;-65
2022/12/15 13:46:24;;;;;;;47.33;29.95;;;;;;;;;;4955685;28;20229;-65
2022/12/15 13:48:54;;;;;;;54.78;30.50;;;;;;;;;;4956194;29;20194;-66
2022/12/15 13:51:31;;;;;;;44.17;31.00;;;;;;;;;;4955303;29;20297;-65
2022/12/15 13:54:00;;;;;;;45.85;28.58;;;;;;;;;;4955820;29;20579;-65
2022/12/15 13:56:40;;;;;;;39.47;28.90;;;;;;;;;;4955335;29;20198;-65
2022/12/15 13:59:14;;;;;;;41.70;27.55;;;;;;;;;;4956041;28;20266;-67
2022/12/15 14:01:48;;;;;;;45.85;30.67;;;;;;;;;;4955625;29;20600;-68
2022/12/15 14:04:17;;;;;;;43.42;28.83;;;;;;;;;;4955588;29;20186;-64
2022/12/15 14:06:47;;;;;;;42.22;28.95;;;;;;;;;;4955028;29;20294;-65
2022/12/15 14:09:15;;;;;;;42.35;29.95;;;;;;;;;;4955627;29;20335;-64
2022/12/15 14:11:44;;;;;;;41.75;28.20;;;;;;;;;;4955088;28;20234;-65
2022/12/15 14:14:16;;;;;;;40.40;29.13;;;;;;;;;;4955739;29;20295;-65
2022/12/15 14:16:44;;;;;;;50.97;28.85;;;;;;;;;;4955162;28;20277;-64
2022/12/15 14:19:14;;;;;;;40.42;27.95;;;;;;;;;;4970455;28;20655;-64
2022/12/15 14:21:48;;;;;;;41.20;29.25;;;;;;;;;;4967147;28;20625;-64
2022/12/15 14:24:23;;;;;;;42.42;28.77;;;;;;;;;;4954247;29;20187;-66
2022/12/15 14:26:51;;;;;;;41.83;28.05;;;;;;;;;;4953556;29;20208;-65
2022/12/15 14:29:18;;;;;;;45.28;31.17;;;;;;;;;;4953763;28;20201;-64
2022/12/15 14:31:48;;;;;;;37.63;28.70;;;;;;;;;;4954563;28;20288;-64
2022/12/15 14:34:17;;;;;;;46.00;29.20;;;;;;;;;;4954329;29;20238;-72
2022/12/15 14:36:49;;;;;;;49.50;31.02;;;;;;;;;;4954478;29;20289;-65
2022/12/15 14:39:20;;;;;;;46.17;30.02;;;;;;;;;;4955057;29;20214;-65
2022/12/15 14:41:48;;;;;;;46.22;31.08;;;;;;;;;;4954479;28;20379;-66
2022/12/15 14:44:17;;;;;;;53.15;33.92;;;;;;;;;;4954522;28;20249;-65
2022/12/15 14:46:47;;;;;;;42.88;32.13;;;;;;;;;;4954221;29;20233;-65
2022/12/15 14:49:19;;;;;;;49.35;30.65;;;;;;;;;;4954223;28;20204;-65
2022/12/15 14:51:49;;;;;;;48.20;31.88;;;;;;;;;;4954589;28;20241;-65
2022/12/15 14:54:28;;;;;;;49.72;28.90;;;;;;;;;;4954529;29;20230;-65
2022/12/15 14:56:57;;;;;;;54.75;32.17;;;;;;;;;;4954086;29;20186;-65
2022/12/15 14:59:24;;;;;;;51.92;31.90;;;;;;;;;;4954589;28;20230;-65
2022/12/15 15:01:53;;;;;;;43.72;31.10;;;;;;;;;;4954843;29;20532;-65
2022/12/15 15:04:24;;;;;;;56.28;30.98;;;;;;;;;;4954106;29;20202;-65
2022/12/15 15:06:56;;;;;;;44.40;30.52;;;;;;;;;;4954196;29;20193;-65
2022/12/15 15:09:25;;;;;;;47.20;32.70;;;;;;;;;;4954795;29;20195;-65
2022/12/15 15:11:53;;;;;;;46.08;32.75;;;;;;;;;;4953953;28;20320;-64
2022/12/15 15:14:24;;;;;;;57.60;33.33;;;;;;;;;;4954645;28;20226;-64
2022/12/15 15:17:08;;;;;;;54.55;32.97;;;;;;;;;;4954149;28;20203;-65
2022/12/15 15:19:37;;;;;;;45.63;32.15;;;;;;;;;;4954281;29;20671;-65
2022/12/15 15:22:05;;;;;;;46.88;31.58;;;;;;;;;;4954574;28;20282;-65
2022/12/15 15:24:36;;;;;;;48.70;34.28;;;;;;;;;;4954584;29;20216;-65
2022/12/15 15:27:23;;;;;;;56.55;33.28;;;;;;;;;;4954386;28;20299;-65
2022/12/15 15:29:50;;;;;;;56.83;31.83;;;;;;;;;;4957824;29;20286;-64
2022/12/15 15:32:19;;;;;;;51.53;32.03;;;;;;;;;;4957921;29;20206;-64
2022/12/15 15:34:46;;;;;;;58.65;32.95;;;;;;;;;;4957894;28;20226;-65
2022/12/15 15:37:18;;;;;;;47.90;31.23;;;;;;;;;;4957893;28;20195;-65
2022/12/15 15:39:46;;;;;;;53.33;33.88;;;;;;;;;;4958206;29;20210;-64
2022/12/15 15:42:13;;;;;;;56.28;31.70;;;;;;;;;;4957916;28;20206;-65
2022/12/15 15:44:40;;;;;;;51.38;33.45;;;;;;;;;;4957450;29;20249;-65
2022/12/15 15:47:15;;;;;;;54.03;31.77;;;;;;;;;;4957596;29;20230;-65
2022/12/15 15:49:43;;;;;;;57.13;34.42;;;;;;;;;;4957666;29;20719;-65
2022/12/15 15:52:13;;;;;;;49.72;35.05;;;;;;;;;;4957406;29;20614;-65
2022/12/15 15:54:42;;;;;;;60.20;33.50;;;;;;;;;;4957198;29;20594;-66
2022/12/15 15:57:12;;;;;;;53.50;32.53;;;;;;;;;;4957338;28;20209;-65
2022/12/15 15:59:41;;;;;;;47.10;33.08;;;;;;;;;;4957104;29;20301;-66
2022/12/15 16:02:09;;;;;;;59.63;35.50;;;;;;;;;;4957313;29;20205;-66
2022/12/15 16:04:40;;;;;;;55.08;33.80;;;;;;;;;;4957290;29;20201;-65
2022/12/15 16:07:10;;;;;;;52.03;34.60;;;;;;;;;;4957777;29;20191;-65
2022/12/15 16:09:37;;;;;;;61.83;32.85;;;;;;;;;;4957184;28;20285;-65
2022/12/15 16:12:06;;;;;;;55.20;34.88;;;;;;;;;;4957167;28;20285;-65
2022/12/15 16:14:33;;;;;;;70.28;34.33;;;;;;;;;;4956483;28;20767;-65
2022/12/15 16:17:00;;;;;;;55.20;32.30;;;;;;;;;;4956683;29;20289;-65
2022/12/15 16:19:27;;;;;;;67.28;36.28;;;;;;;;;;4956682;28;20630;-65
2022/12/15 16:21:55;;;;;;;57.28;34.17;;;;;;;;;;4956646;28;20201;-65
2022/12/15 16:24:23;;;;;;;56.33;34.20;;;;;;;;;;4956613;29;20643;-65
2022/12/15 16:26:51;;;;;;;62.40;36.70;;;;;;;;;;4957339;28;20290;-64
2022/12/15 16:29:21;;;;;;;109.18;66.32;;;;;;;;;;4956757;28;20234;-65
2022/12/15 16:31:49;;;;;;;74.53;47.30;;;;;;;;;;4956994;29;20198;-65
2022/12/15 16:34:17;;;;;;;69.85;41.55;;;;;;;;;;4956162;29;20261;-65
2022/12/15 16:36:45;;;;;;;60.38;35.83;;;;;;;;;;4956590;28;20664;-65
2022/12/15 16:39:23;;;;;;;75.18;39.63;;;;;;;;;;4955741;28;20222;-64
2022/12/15 16:41:52;;;;;;;58.88;35.20;;;;;;;;;;4956695;29;20194;-65
2022/12/15 16:44:21;;;;;;;56.20;34.95;;;;;;;;;;4956602;28;20288;-66
2022/12/15 16:46:50;;;;;;;54.13;35.38;;;;;;;;;;4956576;29;20202;-65
2022/12/15 16:49:17;;;;;;;61.05;35.55;;;;;;;;;;4956071;28;20241;-64
2022/12/15 16:51:46;;;;;;;60.40;36.88;;;;;;;;;;4956434;29;20199;-64
2022/12/15 16:54:16;;;;;;;66.30;41.03;;;;;;;;;;4955984;28;20212;-64
2022/12/15 16:56:43;;;;;;;64.40;37.95;;;;;;;;;;4955836;29;20190;-64